Time;durP1;ratioP1;P1;durP2;ratioP2;P2;SDS_P1;SDS_P2;PMS_P1;PMS_P2;Temp;Humidity;BMP_temperature;BMP_pressure;BME280_temperature;BME280_humidity;BME280_pressure;Samples;Min_cycle;Max_cycle;Signal;HPM_P1;HPM_P2
2023/03/10 00:01:22;;;;;;;0.30;0.30;;;5.00;99.90;;;;;;5061557;28;20202;-65
2023/03/10 00:03:50;;;;;;;0.40;0.40;;;5.00;99.90;;;;;;5060724;28;20207;-63
2023/03/10 00:06:20;;;;;;;0.40;0.40;;;5.10;99.90;;;;;;5060646;28;20195;-62
2023/03/10 00:08:48;;;;;;;0.40;0.40;;;5.10;99.90;;;;;;5077517;28;20227;-62
2023/03/10 00:11:16;;;;;;;0.40;0.40;;;5.10;99.90;;;;;;5059743;28;20195;-65
2023/03/10 00:13:43;;;;;;;0.40;0.40;;;5.10;99.90;;;;;;5059849;28;20270;-62
2023/03/10 00:16:16;;;;;;;0.40;0.40;;;5.20;99.90;;;;;;5061024;28;20191;-64
2023/03/10 00:18:45;;;;;;;0.40;0.40;;;5.20;99.90;;;;;;5058744;28;20207;-63
2023/03/10 00:21:18;;;;;;;0.40;0.40;;;5.30;99.90;;;;;;5059246;28;20699;-64
2023/03/10 00:23:45;;;;;;;0.40;0.40;;;5.30;99.90;;;;;;5057225;28;20206;-63
2023/03/10 00:26:14;;;;;;;0.40;0.40;;;5.40;99.90;;;;;;5066531;28;20286;-69
2023/03/10 00:28:42;;;;;;;0.40;0.40;;;5.50;99.90;;;;;;5058024;28;20211;-64
2023/03/10 00:31:15;;;;;;;0.40;0.40;;;5.60;99.90;;;;;;5060428;28;20720;-64
2023/03/10 00:33:42;;;;;;;0.40;0.40;;;5.70;99.90;;;;;;5058051;28;20191;-64
2023/03/10 00:36:13;;;;;;;0.40;0.40;;;5.80;99.90;;;;;;5059645;28;20231;-65
2023/03/10 00:38:42;;;;;;;0.40;0.40;;;5.80;99.90;;;;;;5069766;28;20199;-64
2023/03/10 00:41:21;;;;;;;0.30;0.30;;;6.00;99.90;;;;;;5057608;28;20206;-64
2023/03/10 00:43:49;;;;;;;0.30;0.30;;;6.40;99.90;;;;;;5056876;28;20250;-64
2023/03/10 00:46:17;;;;;;;0.40;0.40;;;6.60;99.90;;;;;;5057256;28;20341;-64
2023/03/10 00:48:45;;;;;;;0.40;0.40;;;6.70;99.90;;;;;;5057927;28;20192;-64
2023/03/10 00:51:12;;;;;;;0.30;0.30;;;6.90;99.90;;;;;;5058608;28;20231;-64
2023/03/10 00:53:40;;;;;;;0.30;0.30;;;7.10;99.90;;;;;;5065778;28;20198;-64
2023/03/10 00:56:13;;;;;;;0.30;0.30;;;7.20;99.90;;;;;;5065529;28;20322;-64
2023/03/10 00:58:41;;;;;;;0.30;0.30;;;7.20;99.90;;;;;;5049341;28;20232;-65
2023/03/10 01:01:27;;;;;;;0.40;0.40;;;7.30;99.90;;;;;;5072955;28;20670;-65
2023/03/10 01:03:56;;;;;;;0.40;0.40;;;7.60;99.90;;;;;;5049765;28;20253;-64
2023/03/10 01:06:24;;;;;;;0.30;0.30;;;7.80;99.90;;;;;;5060468;28;20186;-64
2023/03/10 01:08:51;;;;;;;0.30;0.30;;;7.80;99.90;;;;;;5059700;28;20237;-64
2023/03/10 01:11:21;;;;;;;0.30;0.30;;;8.00;99.90;;;;;;5060022;28;20230;-66
2023/03/10 01:13:49;;;;;;;0.40;0.40;;;8.10;99.90;;;;;;5064264;28;20696;-64
2023/03/10 01:16:16;;;;;;;0.40;0.40;;;8.20;99.90;;;;;;5057199;28;20195;-66
2023/03/10 01:18:44;;;;;;;0.40;0.40;;;8.40;99.90;;;;;;5041667;28;20199;-64
2023/03/10 01:21:17;;;;;;;0.30;0.30;;;8.30;99.90;;;;;;5052663;28;20253;-64
2023/03/10 01:23:45;;;;;;;0.30;0.30;;;8.40;99.90;;;;;;5040231;28;20199;-64
2023/03/10 01:26:11;;;;;;;0.33;0.33;;;8.50;99.90;;;;;;5057875;28;20298;-64
2023/03/10 01:28:38;;;;;;;0.37;0.37;;;8.50;99.90;;;;;;5051876;28;20245;-64
2023/03/10 01:31:06;;;;;;;0.30;0.30;;;8.50;99.90;;;;;;5041347;28;20702;-64
2023/03/10 01:33:35;;;;;;;0.40;0.40;;;8.60;99.90;;;;;;5056364;28;20713;-63
2023/03/10 01:36:08;;;;;;;0.40;0.40;;;8.70;99.90;;;;;;5041086;28;20230;-65
2023/03/10 01:38:36;;;;;;;0.40;0.40;;;8.70;99.90;;;;;;5056746;28;20274;-65
2023/03/10 01:41:04;;;;;;;0.30;0.30;;;8.60;99.90;;;;;;5040715;28;20199;-64
2023/03/10 01:43:39;;;;;;;0.30;0.30;;;8.70;99.90;;;;;;5058057;28;20851;-64
2023/03/10 01:46:31;;;;;;;0.40;0.40;;;8.80;99.90;;;;;;5070678;28;20249;-65
2023/03/10 01:49:09;;;;;;;0.37;0.37;;;8.80;99.90;;;;;;5049547;28;20207;-63
2023/03/10 01:51:38;;;;;;;0.30;0.30;;;8.90;99.90;;;;;;5047310;28;20199;-64
2023/03/10 01:54:08;;;;;;;0.30;0.30;;;9.00;99.90;;;;;;5055355;28;20568;-63
2023/03/10 01:56:37;;;;;;;0.40;0.40;;;9.00;99.90;;;;;;5057331;28;20194;-65
2023/03/10 01:59:04;;;;;;;0.30;0.30;;;9.00;99.90;;;;;;5055912;28;20219;-63
2023/03/10 02:01:32;;;;;;;0.30;0.30;;;8.90;99.90;;;;;;5054435;28;20280;-68
2023/03/10 02:04:07;;;;;;;0.40;0.40;;;9.00;99.90;;;;;;5051395;22;20238;-66
2023/03/10 02:06:36;;;;;;;0.40;0.40;;;9.00;99.90;;;;;;5023900;28;20625;-64
2023/03/10 02:09:04;;;;;;;0.37;0.37;;;8.90;99.90;;;;;;5032033;28;20715;-65
2023/03/10 02:11:33;;;;;;;0.30;0.30;;;8.90;99.90;;;;;;5000273;28;20307;-66
2023/03/10 02:14:03;;;;;;;0.30;0.30;;;8.90;99.90;;;;;;5024792;28;20700;-65
2023/03/10 02:16:30;;;;;;;0.30;0.30;;;9.00;99.90;;;;;;5017844;28;20306;-65
2023/03/10 02:18:58;;;;;;;0.30;0.30;;;9.00;99.90;;;;;;5016665;28;20187;-66
2023/03/10 02:21:50;;;;;;;0.37;0.37;;;8.90;99.90;;;;;;5017311;28;20215;-65
2023/03/10 02:24:25;;;;;;;0.30;0.30;;;9.00;99.90;;;;;;5023915;28;20204;-66
2023/03/10 02:27:00;;;;;;;0.40;0.40;;;9.00;99.90;;;;;;5024460;28;20207;-65
2023/03/10 02:29:40;;;;;;;0.40;0.40;;;9.00;99.90;;;;;;5016570;28;20205;-66
2023/03/10 02:32:24;;;;;;;0.30;0.30;;;8.90;99.90;;;;;;5025138;28;20208;-66
2023/03/10 02:34:51;;;;;;;0.30;0.30;;;8.90;99.90;;;;;;5025772;28;20518;-66
2023/03/10 02:37:25;;;;;;;0.40;0.40;;;8.90;99.90;;;;;;4998681;28;20200;-66
2023/03/10 02:39:53;;;;;;;0.30;0.30;;;8.90;99.90;;;;;;5015928;28;20569;-66
2023/03/10 02:42:22;;;;;;;0.30;0.30;;;8.80;99.90;;;;;;5016112;28;20196;-66
2023/03/10 02:44:51;;;;;;;0.30;0.30;;;8.90;99.90;;;;;;5039899;28;20219;-66
2023/03/10 02:47:19;;;;;;;0.30;0.30;;;8.80;99.90;;;;;;5025866;28;20290;-66
2023/03/10 02:49:46;;;;;;;0.40;0.40;;;8.80;99.90;;;;;;5026221;28;20243;-66
2023/03/10 02:52:36;;;;;;;0.40;0.40;;;8.80;99.90;;;;;;5020996;28;20197;-66
2023/03/10 02:55:04;;;;;;;0.40;0.40;;;8.70;99.90;;;;;;5028081;28;20319;-66
2023/03/10 02:57:32;;;;;;;0.40;0.40;;;8.70;99.90;;;;;;5020442;28;20200;-66
2023/03/10 03:00:00;;;;;;;0.40;0.40;;;8.70;99.90;;;;;;5019695;28;20196;-68
2023/03/10 03:02:28;;;;;;;0.33;0.33;;;8.70;99.90;;;;;;5018754;28;20251;-66
2023/03/10 03:04:55;;;;;;;0.40;0.40;;;8.60;99.90;;;;;;5021061;28;20243;-70
2023/03/10 03:07:23;;;;;;;0.30;0.30;;;8.70;99.90;;;;;;5019199;28;20196;-66
2023/03/10 03:09:50;;;;;;;0.37;0.37;;;8.70;99.90;;;;;;5019117;28;20228;-66
2023/03/10 03:12:17;;;;;;;0.30;0.30;;;8.70;99.90;;;;;;5019031;28;20232;-66
2023/03/10 03:14:44;;;;;;;0.30;0.30;;;8.70;99.90;;;;;;5026193;28;20278;-68
2023/03/10 03:17:11;;;;;;;0.40;0.40;;;8.70;99.90;;;;;;5019328;28;20192;-66
2023/03/10 03:19:38;;;;;;;0.40;0.40;;;8.70;99.90;;;;;;5034753;28;20669;-65
2023/03/10 03:22:06;;;;;;;0.37;0.37;;;8.70;99.90;;;;;;5017156;28;20254;-65
2023/03/10 03:24:33;;;;;;;0.30;0.30;;;8.70;99.90;;;;;;5003270;28;20201;-65
2023/03/10 03:27:01;;;;;;;0.30;0.30;;;8.70;99.90;;;;;;5022286;28;20185;-65
2023/03/10 03:29:28;;;;;;;0.33;0.33;;;8.60;99.90;;;;;;5005027;28;20632;-65
2023/03/10 03:31:55;;;;;;;0.30;0.30;;;8.50;99.90;;;;;;5025387;28;20276;-64
2023/03/10 03:34:27;;;;;;;0.40;0.40;;;8.50;99.90;;;;;;5025720;28;20204;-66
2023/03/10 03:36:57;;;;;;;0.30;0.30;;;8.50;99.90;;;;;;5017554;28;20197;-63
2023/03/10 03:39:30;;;;;;;0.30;0.30;;;8.60;99.90;;;;;;5041360;28;20199;-64
2023/03/10 03:42:00;;;;;;;0.30;0.30;;;8.50;99.90;;;;;;5009588;28;20299;-66
2023/03/10 03:44:33;;;;;;;0.30;0.30;;;8.50;99.90;;;;;;5025347;28;20208;-66
2023/03/10 03:47:00;;;;;;;0.30;0.30;;;8.50;99.90;;;;;;5020366;28;20292;-66
2023/03/10 03:49:28;;;;;;;0.30;0.30;;;8.60;99.90;;;;;;5003705;28;20216;-66
2023/03/10 03:51:55;;;;;;;0.40;0.40;;;8.50;99.90;;;;;;5001834;28;20668;-59
2023/03/10 03:54:22;;;;;;;0.40;0.40;;;8.50;99.90;;;;;;5026887;28;20211;-61
2023/03/10 03:56:50;;;;;;;0.30;0.30;;;8.40;99.90;;;;;;5025625;28;20695;-67
2023/03/10 03:59:17;;;;;;;0.30;0.30;;;8.50;99.90;;;;;;5009658;28;20375;-67
2023/03/10 04:01:44;;;;;;;0.30;0.30;;;8.40;99.90;;;;;;5024159;28;20200;-68
2023/03/10 04:04:11;;;;;;;0.40;0.40;;;8.50;99.90;;;;;;5009308;28;20243;-65
2023/03/10 04:06:39;;;;;;;0.30;0.30;;;8.50;99.90;;;;;;5002805;28;20201;-66
2023/03/10 04:09:09;;;;;;;0.30;0.30;;;8.50;99.90;;;;;;5018270;28;20282;-66
2023/03/10 04:11:37;;;;;;;0.40;0.40;;;8.60;99.90;;;;;;5026415;28;20277;-66
2023/03/10 04:14:04;;;;;;;0.40;0.40;;;8.60;99.90;;;;;;5034715;28;20216;-66
2023/03/10 04:16:32;;;;;;;0.30;0.30;;;8.60;99.90;;;;;;5007372;28;20216;-65
2023/03/10 04:19:00;;;;;;;0.50;0.50;;;8.60;99.90;;;;;;5017647;28;20204;-66
2023/03/10 04:21:27;;;;;;;0.40;0.40;;;8.70;99.90;;;;;;5027026;28;20223;-65
2023/03/10 04:23:56;;;;;;;0.30;0.30;;;8.80;99.90;;;;;;5035098;28;20420;-65
2023/03/10 04:26:26;;;;;;;0.30;0.30;;;8.70;99.90;;;;;;5010681;28;20656;-66
2023/03/10 04:28:55;;;;;;;4.60;4.20;;;8.80;99.90;;;;;;5026711;28;20204;-67
2023/03/10 04:31:22;;;;;;;0.40;0.40;;;8.70;99.90;;;;;;5001528;28;20205;-66
2023/03/10 04:33:50;;;;;;;0.30;0.30;;;8.80;99.90;;;;;;5018700;28;20201;-66
2023/03/10 04:36:19;;;;;;;0.40;0.40;;;8.70;99.90;;;;;;5018979;28;20259;-65
2023/03/10 04:38:49;;;;;;;0.40;0.40;;;8.70;99.90;;;;;;5017873;28;20283;-68
2023/03/10 04:41:16;;;;;;;0.40;0.40;;;8.80;99.90;;;;;;5017909;28;20199;-67
2023/03/10 04:43:45;;;;;;;0.83;0.83;;;8.80;99.90;;;;;;5001284;28;20263;-64
2023/03/10 04:46:15;;;;;;;0.90;0.90;;;8.80;99.90;;;;;;5022350;28;20204;-67
2023/03/10 04:48:43;;;;;;;0.40;0.40;;;8.80;99.90;;;;;;5017230;28;20315;-67
2023/03/10 04:51:11;;;;;;;0.40;0.40;;;8.80;99.90;;;;;;5017150;28;20290;-68
2023/03/10 04:53:47;;;;;;;0.40;0.40;;;8.80;99.90;;;;;;5022098;28;20691;-68
2023/03/10 04:56:14;;;;;;;0.40;0.40;;;8.80;99.90;;;;;;5024889;28;20219;-67
2023/03/10 04:58:41;;;;;;;0.40;0.40;;;8.80;99.90;;;;;;5017490;28;20204;-67
2023/03/10 05:01:10;;;;;;;0.30;0.30;;;8.80;99.90;;;;;;5022331;28;20211;-67
2023/03/10 05:03:41;;;;;;;0.40;0.40;;;8.90;99.90;;;;;;5017223;28;20239;-67
2023/03/10 05:06:16;;;;;;;0.33;0.33;;;8.90;99.90;;;;;;5041379;28;20205;-67
2023/03/10 05:08:48;;;;;;;0.40;0.40;;;8.90;99.90;;;;;;5024092;28;20239;-67
2023/03/10 05:11:18;;;;;;;0.40;0.40;;;8.90;99.90;;;;;;5017402;28;20211;-68
2023/03/10 05:13:45;;;;;;;0.40;0.40;;;8.90;99.90;;;;;;5016603;28;20633;-67
2023/03/10 05:16:15;;;;;;;0.40;0.40;;;8.90;99.90;;;;;;5039073;28;20224;-65
2023/03/10 05:18:43;;;;;;;0.40;0.40;;;9.00;99.90;;;;;;5024025;28;20215;-65
2023/03/10 05:21:12;;;;;;;0.40;0.40;;;8.90;99.90;;;;;;5017234;28;20700;-65
2023/03/10 05:23:40;;;;;;;0.40;0.40;;;9.00;99.90;;;;;;5017727;28;20203;-65
2023/03/10 05:26:11;;;;;;;0.90;0.90;;;8.90;99.90;;;;;;5001047;28;20302;-67
2023/03/10 05:28:38;;;;;;;0.40;0.40;;;8.90;99.90;;;;;;5015973;28;20263;-69
2023/03/10 05:31:10;;;;;;;0.37;0.37;;;8.90;99.90;;;;;;5017178;28;20189;-65
2023/03/10 05:33:38;;;;;;;0.30;0.30;;;8.90;99.90;;;;;;5024575;28;20215;-65
2023/03/10 05:36:07;;;;;;;0.30;0.30;;;8.90;99.90;;;;;;5033616;28;20217;-68
2023/03/10 05:38:36;;;;;;;0.30;0.30;;;8.90;99.90;;;;;;5016713;28;20548;-65
2023/03/10 05:41:07;;;;;;;0.30;0.30;;;8.90;99.90;;;;;;5017730;28;20208;-65
2023/03/10 05:43:34;;;;;;;0.33;0.33;;;8.90;99.90;;;;;;5018539;28;20204;-65
2023/03/10 05:46:02;;;;;;;0.30;0.30;;;8.90;99.90;;;;;;5023660;28;20235;-66
2023/03/10 05:48:31;;;;;;;0.40;0.40;;;8.80;99.90;;;;;;5016465;28;20606;-65
2023/03/10 05:51:01;;;;;;;0.40;0.40;;;8.80;99.90;;;;;;5016333;28;20216;-66
2023/03/10 05:53:30;;;;;;;0.40;0.40;;;8.70;99.90;;;;;;5022249;28;20258;-65
2023/03/10 05:55:57;;;;;;;0.30;0.30;;;8.80;99.90;;;;;;5016585;28;20217;-66
2023/03/10 05:58:25;;;;;;;0.33;0.33;;;8.80;99.90;;;;;;5019149;28;20243;-65
2023/03/10 06:00:52;;;;;;;0.40;0.40;;;8.80;99.90;;;;;;5024958;28;20541;-66
2023/03/10 06:03:21;;;;;;;0.30;0.30;;;8.80;99.90;;;;;;5014346;28;20216;-65
2023/03/10 06:05:49;;;;;;;0.30;0.30;;;8.80;99.90;;;;;;5016872;28;20215;-66
2023/03/10 06:08:16;;;;;;;0.30;0.30;;;8.70;99.90;;;;;;5017385;28;20250;-66
2023/03/10 06:10:46;;;;;;;0.40;0.40;;;8.70;99.90;;;;;;5016824;28;20258;-66
2023/03/10 06:13:13;;;;;;;0.40;0.40;;;8.70;99.90;;;;;;5013735;28;20264;-66
2023/03/10 06:15:40;;;;;;;0.40;0.40;;;8.70;99.90;;;;;;5015765;28;20779;-66
2023/03/10 06:18:07;;;;;;;0.37;0.37;;;8.80;99.90;;;;;;5016128;28;20685;-65
2023/03/10 06:20:34;;;;;;;0.40;0.40;;;8.80;99.90;;;;;;5018325;28;20718;-67
2023/03/10 06:23:00;;;;;;;0.40;0.40;;;8.80;99.90;;;;;;5018665;28;20675;-66
2023/03/10 06:25:27;;;;;;;0.40;0.40;;;8.70;99.90;;;;;;5019816;28;20196;-65
2023/03/10 06:27:54;;;;;;;0.37;0.37;;;8.70;99.90;;;;;;5021410;28;20735;-63
2023/03/10 06:30:21;;;;;;;0.40;0.40;;;8.70;99.90;;;;;;5021434;28;21198;-65
2023/03/10 06:32:48;;;;;;;0.50;0.50;;;8.70;99.90;;;;;;5020639;28;20601;-66
2023/03/10 06:35:15;;;;;;;0.40;0.40;;;8.80;99.90;;;;;;5021687;28;20572;-66
2023/03/10 06:37:43;;;;;;;0.40;0.40;;;8.80;99.90;;;;;;5021580;28;20201;-66
2023/03/10 06:40:12;;;;;;;0.40;0.40;;;8.80;99.90;;;;;;5020764;28;20203;-66
2023/03/10 06:42:40;;;;;;;0.40;0.40;;;8.80;99.90;;;;;;5020089;28;20600;-66
2023/03/10 06:45:09;;;;;;;0.60;0.60;;;8.80;99.90;;;;;;5021243;28;20280;-66
2023/03/10 06:47:36;;;;;;;0.30;0.30;;;8.80;99.90;;;;;;5020068;28;20261;-66
2023/03/10 06:50:04;;;;;;;0.30;0.30;;;8.90;99.90;;;;;;5020765;28;20196;-65
2023/03/10 06:52:33;;;;;;;0.40;0.40;;;8.80;99.90;;;;;;5026571;28;20561;-65
2023/03/10 06:55:04;;;;;;;0.40;0.40;;;8.90;99.90;;;;;;5028087;28;20224;-66
2023/03/10 06:57:31;;;;;;;0.40;0.40;;;8.90;99.90;;;;;;5021478;28;20200;-66
2023/03/10 06:59:58;;;;;;;0.40;0.40;;;8.90;99.90;;;;;;5020808;28;20627;-64
2023/03/10 07:02:24;;;;;;;0.40;0.40;;;9.00;99.90;;;;;;5018555;28;20775;-64
2023/03/10 07:04:51;;;;;;;0.30;0.30;;;9.00;99.90;;;;;;5019409;28;20303;-66
2023/03/10 07:07:18;;;;;;;0.30;0.30;;;9.00;99.90;;;;;;5020276;28;20197;-66
2023/03/10 07:09:45;;;;;;;0.40;0.40;;;9.10;99.90;;;;;;5018613;28;20766;-66
2023/03/10 07:12:12;;;;;;;0.37;0.37;;;9.20;99.90;;;;;;5021079;28;20298;-66
2023/03/10 07:14:39;;;;;;;0.40;0.40;;;9.30;99.90;;;;;;5018005;28;20696;-66
2023/03/10 07:17:06;;;;;;;0.40;0.40;;;9.30;99.90;;;;;;5020283;28;20215;-66
2023/03/10 07:19:34;;;;;;;0.30;0.30;;;9.40;99.90;;;;;;5018466;28;20661;-66
2023/03/10 07:22:01;;;;;;;0.30;0.30;;;9.40;99.90;;;;;;5018327;28;20263;-66
2023/03/10 07:24:28;;;;;;;0.30;0.30;;;9.30;99.90;;;;;;5017471;28;20853;-65
2023/03/10 07:26:57;;;;;;;0.40;0.40;;;9.40;99.90;;;;;;5019698;28;20200;-64
2023/03/10 07:29:24;;;;;;;0.40;0.40;;;9.30;99.90;;;;;;5019248;28;20196;-66
2023/03/10 07:31:51;;;;;;;0.40;0.40;;;9.30;99.90;;;;;;5015366;28;20258;-67
2023/03/10 07:34:18;;;;;;;0.40;0.40;;;9.30;99.90;;;;;;5025127;28;20561;-66
2023/03/10 07:36:45;;;;;;;0.37;0.37;;;9.30;99.90;;;;;;5025233;28;20868;-67
2023/03/10 07:39:12;;;;;;;0.40;0.40;;;9.40;99.90;;;;;;5019032;28;20255;-66
2023/03/10 07:41:39;;;;;;;0.30;0.30;;;9.50;99.90;;;;;;5019633;28;20201;-67
2023/03/10 07:44:06;;;;;;;0.30;0.30;;;9.50;99.90;;;;;;5018908;28;20228;-66
2023/03/10 07:46:33;;;;;;;0.30;0.30;;;9.60;99.90;;;;;;5023965;28;20197;-66
2023/03/10 07:49:03;;;;;;;0.40;0.40;;;9.60;99.90;;;;;;5019733;28;20199;-66
2023/03/10 07:51:30;;;;;;;0.40;0.40;;;9.60;99.90;;;;;;5034700;28;20244;-66
2023/03/10 07:53:57;;;;;;;0.30;0.30;;;9.60;99.90;;;;;;5019681;28;20217;-65
2023/03/10 07:56:25;;;;;;;0.30;0.30;;;9.70;99.90;;;;;;5020702;28;20307;-63
2023/03/10 07:58:51;;;;;;;0.40;0.40;;;9.80;99.90;;;;;;5019636;28;20197;-65
2023/03/10 08:01:20;;;;;;;0.40;0.40;;;9.90;1.00;;;;;;5020274;28;20256;-66
2023/03/10 08:03:48;;;;;;;0.40;0.40;;;9.80;99.90;;;;;;5018820;28;20291;-66
2023/03/10 08:06:21;;;;;;;0.40;0.40;;;9.80;1.00;;;;;;5016403;28;20657;-67
2023/03/10 08:08:49;;;;;;;0.30;0.30;;;9.80;99.90;;;;;;5018826;28;20224;-70
2023/03/10 08:11:17;;;;;;;0.40;0.40;;;9.80;99.90;;;;;;5040873;28;20197;-66
2023/03/10 08:13:46;;;;;;;0.30;0.30;;;9.80;1.00;;;;;;5025341;28;20204;-67
2023/03/10 08:16:16;;;;;;;0.30;0.30;;;9.70;1.00;;;;;;5018088;28;20212;-66
2023/03/10 08:18:43;;;;;;;0.30;0.30;;;9.70;1.00;;;;;;5043091;28;20200;-66
2023/03/10 08:21:11;;;;;;;0.40;0.40;;;9.80;99.90;;;;;;5019529;28;20246;-69
2023/03/10 08:23:38;;;;;;;0.40;0.40;;;9.80;99.90;;;;;;5019341;28;20192;-65
2023/03/10 08:26:07;;;;;;;0.30;0.30;;;9.80;99.90;;;;;;5019125;28;20562;-65
2023/03/10 08:28:37;;;;;;;0.30;0.30;;;9.80;99.90;;;;;;5019305;28;20192;-66
2023/03/10 08:31:14;;;;;;;0.40;0.40;;;9.80;1.00;;;;;;5018646;28;20195;-68
2023/03/10 08:33:41;;;;;;;0.40;0.40;;;9.90;1.00;;;;;;5024001;28;20227;-66
2023/03/10 08:36:17;;;;;;;0.40;0.40;;;9.90;1.00;;;;;;5016420;28;20214;-66
2023/03/10 08:38:45;;;;;;;0.40;0.40;;;10.00;1.00;;;;;;5019296;28;20711;-66
2023/03/10 08:41:23;;;;;;;0.40;0.40;;;10.00;1.00;;;;;;5017435;28;20254;-66
2023/03/10 08:43:52;;;;;;;0.33;0.33;;;10.10;1.00;;;;;;5008011;28;20203;-66
2023/03/10 08:46:21;;;;;;;0.30;0.30;;;10.20;1.00;;;;;;5016203;28;20434;-65
2023/03/10 08:48:48;;;;;;;0.40;0.40;;;10.30;1.00;;;;;;5016103;28;20208;-62
2023/03/10 08:51:15;;;;;;;0.50;0.50;;;10.50;99.90;;;;;;5018127;28;20588;-66
2023/03/10 08:53:45;;;;;;;0.30;0.30;;;10.70;99.90;;;;;;5019971;28;20211;-66
2023/03/10 08:56:13;;;;;;;0.30;0.30;;;10.70;1.00;;;;;;5018352;28;20204;-66
2023/03/10 08:58:40;;;;;;;0.30;0.30;;;10.70;1.00;;;;;;5021153;28;20196;-64
2023/03/10 09:01:07;;;;;;;0.40;0.40;;;10.80;1.00;;;;;;5015991;28;20233;-64
2023/03/10 09:03:36;;;;;;;0.30;0.30;;;10.90;1.00;;;;;;5004679;28;20228;-65
2023/03/10 09:06:03;;;;;;;0.30;0.30;;;10.90;99.90;;;;;;5008259;28;20223;-65
2023/03/10 09:08:30;;;;;;;0.33;0.33;;;11.10;1.00;;;;;;5018960;28;20255;-66
2023/03/10 09:10:58;;;;;;;0.30;0.30;;;11.10;1.00;;;;;;5016532;28;20688;-66
2023/03/10 09:13:25;;;;;;;0.30;0.30;;;11.20;99.90;;;;;;5018054;28;20283;-66
2023/03/10 09:15:52;;;;;;;0.30;0.30;;;11.20;99.90;;;;;;5024716;28;20196;-66
2023/03/10 09:18:19;;;;;;;0.40;0.40;;;11.30;1.00;;;;;;5016616;28;20212;-67
2023/03/10 09:20:46;;;;;;;0.30;0.30;;;11.50;1.00;;;;;;5024249;28;20563;-65
2023/03/10 09:23:14;;;;;;;0.40;0.40;;;11.80;1.00;;;;;;5016183;28;20192;-66
2023/03/10 09:25:41;;;;;;;0.30;0.30;;;11.90;1.00;;;;;;5038784;28;20816;-66
2023/03/10 09:28:10;;;;;;;0.20;0.20;;;11.80;1.00;;;;;;5015835;28;20204;-66
2023/03/10 09:30:39;;;;;;;0.30;0.30;;;11.70;1.00;;;;;;5017836;28;20208;-66
2023/03/10 09:33:12;;;;;;;0.30;0.30;;;11.90;73.10;;;;;;5017769;28;20196;-64
2023/03/10 09:35:39;;;;;;;0.30;0.30;;;11.80;1.00;;;;;;5018136;28;20196;-64
2023/03/10 09:38:11;;;;;;;0.20;0.20;;;11.80;1.00;;;;;;5015800;28;20223;-66
2023/03/10 09:40:43;;;;;;;0.35;0.35;;;11.70;1.00;;;;;;5018074;28;20292;-64
2023/03/10 09:43:34;;;;;;;0.30;0.30;;;11.70;1.00;;;;;;5018736;28;20284;-65
2023/03/10 09:46:20;;;;;;;0.40;0.40;;;12.00;1.00;;;;;;5017657;28;20283;-67
2023/03/10 09:48:56;;;;;;;0.30;0.30;;;12.10;99.90;;;;;;5018018;28;20224;-66
2023/03/10 09:51:26;;;;;;;0.30;0.30;;;12.40;99.90;;;;;;5018010;28;20286;-66
2023/03/10 09:53:59;;;;;;;0.30;0.30;;;12.80;1.00;;;;;;4999750;28;20254;-65
2023/03/10 09:56:31;;;;;;;0.30;0.30;;;13.10;1.00;;;;;;5018089;28;20232;-66
2023/03/10 09:59:06;;;;;;;0.40;0.40;;;13.10;1.00;;;;;;5023699;28;20205;-65
2023/03/10 10:01:34;;;;;;;0.30;0.30;;;14.40;99.90;;;;;;5018274;28;20187;-66
2023/03/10 10:04:01;;;;;;;0.30;0.30;;;14.30;99.90;;;;;;5018062;28;20290;-66
2023/03/10 10:06:35;;;;;;;0.30;0.30;;;13.90;99.90;;;;;;5022966;28;20559;-66
2023/03/10 10:09:10;;;;;;;0.30;0.30;;;13.40;99.90;;;;;;5016753;28;20572;-65
2023/03/10 10:11:38;;;;;;;0.30;0.30;;;12.90;99.90;;;;;;5016311;28;20185;-66
2023/03/10 10:14:14;;;;;;;0.20;0.20;;;12.80;99.90;;;;;;5018036;28;20255;-67
2023/03/10 10:17:12;;;;;;;0.30;0.30;;;12.60;99.90;;;;;;5018205;28;20606;-66
2023/03/10 10:19:39;;;;;;;0.30;0.30;;;12.40;99.90;;;;;;5017819;28;20718;-67
2023/03/10 10:22:13;;;;;;;0.30;0.30;;;12.40;99.90;;;;;;5017774;28;20203;-66
2023/03/10 10:24:40;;;;;;;0.30;0.30;;;12.30;1.00;;;;;;5022061;28;20194;-66
2023/03/10 10:27:07;;;;;;;0.40;0.40;;;12.10;1.00;;;;;;5023105;28;20228;-64
2023/03/10 10:29:37;;;;;;;0.30;0.30;;;12.10;1.00;;;;;;5017365;28;20777;-65
2023/03/10 10:32:15;;;;;;;0.30;0.30;;;11.90;99.90;;;;;;5017404;28;20211;-66
2023/03/10 10:34:44;;;;;;;0.32;0.32;;;12.20;1.00;;;;;;5018512;28;20253;-67
2023/03/10 10:37:32;;;;;;;0.30;0.30;;;12.70;1.00;;;;;;5001976;28;20664;-67
2023/03/10 10:40:22;;;;;;;0.30;0.30;;;13.10;99.90;;;;;;5019446;28;20593;-67
2023/03/10 10:42:54;;;;;;;0.30;0.30;;;13.40;99.90;;;;;;5016557;28;20203;-66
2023/03/10 10:45:38;;;;;;;0.30;0.30;;;13.40;97.10;;;;;;5022548;28;20262;-67
2023/03/10 10:48:25;;;;;;;0.30;0.30;;;13.10;66.20;;;;;;5020084;28;20243;-66
2023/03/10 10:50:53;;;;;;;0.30;0.30;;;12.90;99.90;;;;;;5020115;28;20256;-62
2023/03/10 10:53:23;;;;;;;0.30;0.30;;;12.10;99.90;;;;;;5024524;28;20323;-64
2023/03/10 10:56:19;;;;;;;0.30;0.30;;;12.10;99.90;;;;;;5019749;28;20430;-64
2023/03/10 10:59:18;;;;;;;0.30;0.30;;;12.60;99.90;;;;;;5016256;28;20232;-66
2023/03/10 11:01:48;;;;;;;0.30;0.30;;;13.30;99.90;;;;;;5021588;28;20602;-66
2023/03/10 11:04:15;;;;;;;0.20;0.20;;;13.40;19.80;;;;;;5019797;28;20231;-66
2023/03/10 11:06:44;;;;;;;0.38;0.38;;;13.50;22.80;;;;;;5021426;28;20200;-66
2023/03/10 11:09:17;;;;;;;0.20;0.20;;;13.60;77.60;;;;;;5022755;28;20255;-65
2023/03/10 11:12:05;;;;;;;0.30;0.30;;;13.50;15.40;;;;;;5022243;28;20616;-63
2023/03/10 11:14:48;;;;;;;0.30;0.30;;;13.50;1.00;;;;;;5022059;28;20204;-66
2023/03/10 11:17:21;;;;;;;0.32;0.32;;;13.30;1.00;;;;;;5024122;28;20208;-65
2023/03/10 11:20:15;;;;;;;0.30;0.30;;;13.30;1.00;;;;;;5022483;28;20691;-66
2023/03/10 11:23:02;;;;;;;0.30;0.30;;;13.60;1.00;;;;;;4991104;28;20691;-66
2023/03/10 11:25:51;;;;;;;0.30;0.30;;;14.50;1.00;;;;;;5003900;28;20208;-66
2023/03/10 11:28:45;;;;;;;0.30;0.30;;;15.50;1.00;;;;;;5024588;28;20201;-63
2023/03/10 11:31:33;;;;;;;0.30;0.30;;;15.20;1.00;;;;;;5025951;28;20683;-66
2023/03/10 11:34:28;;;;;;;0.30;0.30;;;14.40;1.00;;;;;;5022914;28;20670;-66
2023/03/10 11:37:13;;;;;;;0.30;0.30;;;14.60;1.00;;;;;;5020664;28;20208;-61
2023/03/10 11:39:58;;;;;;;0.40;0.40;;;14.10;1.00;;;;;;5019745;28;20250;-66
2023/03/10 11:42:31;;;;;;;0.30;0.30;;;13.90;1.00;;;;;;5026896;28;20259;-62
2023/03/10 11:45:20;;;;;;;0.30;0.30;;;13.90;1.00;;;;;;5025410;28;20219;-66
2023/03/10 11:48:01;;;;;;;0.40;0.40;;;13.70;1.00;;;;;;5020131;28;20204;-66
2023/03/10 11:50:40;;;;;;;0.30;0.30;;;13.60;1.00;;;;;;5034705;28;20288;-65
2023/03/10 11:53:44;;;;;;;0.20;0.20;;;14.50;1.00;;;;;;5021550;28;20224;-66
2023/03/10 11:56:14;;;;;;;0.30;0.30;;;16.50;1.00;;;;;;5020426;28;20354;-65
2023/03/10 11:58:54;;;;;;;0.20;0.20;;;16.80;1.00;;;;;;5020241;28;20236;-66
2023/03/10 12:01:37;;;;;;;0.22;0.22;;;16.30;1.00;;;;;;5017590;28;20204;-66
2023/03/10 12:04:42;;;;;;;0.30;0.30;;;15.50;1.00;;;;;;5024167;28;20240;-65
2023/03/10 12:07:48;;;;;;;0.40;0.40;;;14.80;1.00;;;;;;5020572;28;20603;-63
2023/03/10 12:10:17;;;;;;;0.40;0.40;;;14.30;1.00;;;;;;5001334;28;20306;-66
2023/03/10 12:12:47;;;;;;;0.30;0.30;;;14.10;1.00;;;;;;5024077;28;20214;-66
2023/03/10 12:15:25;;;;;;;0.30;0.30;;;14.40;1.00;;;;;;5026082;28;20200;-66
2023/03/10 12:17:53;;;;;;;0.25;0.25;;;15.90;1.00;;;;;;5009510;28;20225;-65
2023/03/10 12:20:20;;;;;;;0.20;0.20;;;17.30;1.00;;;;;;5023119;28;20212;-65
2023/03/10 12:22:49;;;;;;;0.20;0.20;;;18.40;1.00;;;;;;5025030;28;20271;-67
2023/03/10 12:25:28;;;;;;;0.20;0.20;;;18.50;1.00;;;;;;5039385;28;20199;-66
2023/03/10 12:28:23;;;;;;;0.20;0.20;;;18.30;1.00;;;;;;5020571;28;20541;-67
2023/03/10 12:30:57;;;;;;;0.20;0.20;;;19.60;1.00;;;;;;5019713;28;20189;-67
2023/03/10 12:33:36;;;;;;;0.30;0.30;;;19.20;1.00;;;;;;5020536;28;20210;-62
2023/03/10 12:36:06;;;;;;;0.20;0.20;;;18.40;1.00;;;;;;5019068;28;20205;-66
2023/03/10 12:39:20;;;;;;;0.20;0.20;;;17.60;1.00;;;;;;5021008;28;20216;-67
2023/03/10 12:41:48;;;;;;;0.20;0.20;;;17.20;1.00;;;;;;5023591;28;20283;-66
2023/03/10 12:44:24;;;;;;;0.30;0.30;;;16.50;1.00;;;;;;5025818;28;20742;-66
2023/03/10 12:46:54;;;;;;;0.38;0.38;;;15.50;1.00;;;;;;5023516;28;20208;-66
2023/03/10 12:49:39;;;;;;;0.20;0.20;;;15.10;1.00;;;;;;5041181;28;20201;-64
2023/03/10 12:52:19;;;;;;;0.30;0.30;;;14.50;1.00;;;;;;5004573;28;20606;-66
2023/03/10 12:54:49;;;;;;;3.40;2.47;;;14.20;1.00;;;;;;5018880;28;20196;-65
2023/03/10 12:57:29;;;;;;;0.50;0.50;;;13.80;1.00;;;;;;5035142;28;20240;-66
2023/03/10 13:00:16;;;;;;;0.30;0.30;;;13.40;1.00;;;;;;5019729;28;20649;-65
2023/03/10 13:02:56;;;;;;;0.30;0.30;;;13.30;1.00;;;;;;5025294;28;20204;-66
2023/03/10 13:05:34;;;;;;;0.30;0.30;;;13.10;1.00;;;;;;5021166;28;20759;-66
2023/03/10 13:08:15;;;;;;;0.37;0.37;;;13.00;1.00;;;;;;5018532;28;20409;-66
2023/03/10 13:10:43;;;;;;;0.30;0.30;;;13.00;1.00;;;;;;5019991;28;20610;-66
2023/03/10 13:13:15;;;;;;;0.30;0.30;;;12.90;1.00;;;;;;5018506;28;20201;-66
2023/03/10 13:15:42;;;;;;;0.30;0.30;;;12.60;1.00;;;;;;5018996;28;20227;-67
2023/03/10 13:18:20;;;;;;;0.30;0.30;;;12.10;1.00;;;;;;5017676;28;20240;-66